sensor_id;sensor_type;location;lat;lon;timestamp;pressure;altitude;pressure_sealevel;temperature;humidity
15914;BME280;8055;51.930;8.840;2023-02-17T00:00:34;76675.25;;;-145.72;100.00
15914;BME280;8055;51.930;8.840;2023-02-17T00:02:59;76669.03;;;-145.72;100.00
15914;BME280;8055;51.930;8.840;2023-02-17T00:05:26;76654.56;;;-145.72;100.00
15914;BME280;8055;51.930;8.840;2023-02-17T00:07:53;76658.69;;;-145.72;100.00
15914;BME280;8055;51.930;8.840;2023-02-17T00:10:18;76660.75;;;-145.72;100.00
15914;BME280;8055;51.930;8.840;2023-02-17T00:12:44;76654.56;;;-145.72;100.00
15914;BME280;8055;51.930;8.840;2023-02-17T00:15:09;76648.34;;;-145.72;100.00
15914;BME280;8055;51.930;8.840;2023-02-17T00:17:35;76640.06;;;-145.72;100.00
15914;BME280;8055;51.930;8.840;2023-02-17T00:20:00;76640.06;;;-145.72;100.00
15914;BME280;8055;51.930;8.840;2023-02-17T00:22:26;76627.66;;;-145.72;100.00
15914;BME280;8055;51.930;8.840;2023-02-17T00:24:51;76633.84;;;-145.72;100.00
15914;BME280;8055;51.930;8.840;2023-02-17T00:27:17;76623.50;;;-145.72;100.00
15914;BME280;8055;51.930;8.840;2023-02-17T00:29:43;76594.53;;;-145.72;100.00
15914;BME280;8055;51.930;8.840;2023-02-17T00:32:09;76586.25;;;-145.72;100.00
15914;BME280;8055;51.930;8.840;2023-02-17T00:34:35;76580.03;;;-145.72;100.00
15914;BME280;8055;51.930;8.840;2023-02-17T00:37:00;76582.13;;;-145.72;100.00
15914;BME280;8055;51.930;8.840;2023-02-17T00:39:25;76573.84;;;-145.72;100.00
15914;BME280;8055;51.930;8.840;2023-02-17T00:41:51;76575.91;;;-145.72;100.00
15914;BME280;8055;51.930;8.840;2023-02-17T00:44:19;76577.97;;;-145.72;100.00
15914;BME280;8055;51.930;8.840;2023-02-17T00:46:45;76577.97;;;-145.72;100.00
15914;BME280;8055;51.930;8.840;2023-02-17T00:49:20;76571.75;;;-145.72;100.00
15914;BME280;8055;51.930;8.840;2023-02-17T00:51:46;76569.69;;;-145.72;100.00
15914;BME280;8055;51.930;8.840;2023-02-17T00:54:12;76565.56;;;-145.72;100.00
15914;BME280;8055;51.930;8.840;2023-02-17T00:56:38;76569.69;;;-145.72;100.00
15914;BME280;8055;51.930;8.840;2023-02-17T00:59:04;76559.34;;;-145.72;100.00
15914;BME280;8055;51.930;8.840;2023-02-17T01:01:30;76555.22;;;-145.72;100.00
15914;BME280;8055;51.930;8.840;2023-02-17T01:03:56;76553.13;;;-145.72;100.00
15914;BME280;8055;51.930;8.840;2023-02-17T01:06:24;76540.72;;;-145.72;100.00
15914;BME280;8055;51.930;8.840;2023-02-17T01:08:50;76540.72;;;-145.72;100.00
15914;BME280;8055;51.930;8.840;2023-02-17T01:11:20;76553.13;;;-145.72;100.00
15914;BME280;8055;51.930;8.840;2023-02-17T01:13:46;76553.13;;;-145.72;100.00
15914;BME280;8055;51.930;8.840;2023-02-17T01:16:23;76546.94;;;-145.72;100.00
15914;BME280;8055;51.930;8.840;2023-02-17T01:18:49;76540.72;;;-145.72;100.00
15914;BME280;8055;51.930;8.840;2023-02-17T01:21:20;76532.44;;;-145.72;100.00
15914;BME280;8055;51.930;8.840;2023-02-17T01:23:49;76538.66;;;-145.72;100.00
15914;BME280;8055;51.930;8.840;2023-02-17T01:26:18;76536.59;;;-145.72;100.00
15914;BME280;8055;51.930;8.840;2023-02-17T01:28:44;76532.44;;;-145.72;100.00
15914;BME280;8055;51.930;8.840;2023-02-17T01:31:10;76530.38;;;-145.72;100.00
15914;BME280;8055;51.930;8.840;2023-02-17T01:33:37;76528.31;;;-145.72;100.00
15914;BME280;8055;51.930;8.840;2023-02-17T01:36:05;76517.97;;;-145.72;100.00
15914;BME280;8055;51.930;8.840;2023-02-17T01:38:31;76517.97;;;-145.72;100.00
15914;BME280;8055;51.930;8.840;2023-02-17T01:40:56;76520.03;;;-145.72;100.00
15914;BME280;8055;51.930;8.840;2023-02-17T01:43:22;76530.38;;;-145.72;100.00
15914;BME280;8055;51.930;8.840;2023-02-17T01:45:58;76536.59;;;-145.72;100.00
15914;BME280;8055;51.930;8.840;2023-02-17T01:48:27;76526.22;;;-145.72;100.00
15914;BME280;8055;51.930;8.840;2023-02-17T01:51:08;76515.88;;;-145.72;100.00
15914;BME280;8055;51.930;8.840;2023-02-17T01:53:38;76517.97;;;-145.72;100.00
15914;BME280;8055;51.930;8.840;2023-02-17T01:56:06;76511.75;;;-145.72;100.00
15914;BME280;8055;51.930;8.840;2023-02-17T01:58:32;76503.47;;;-145.72;100.00
15914;BME280;8055;51.930;8.840;2023-02-17T02:01:00;76503.47;;;-145.72;100.00
15914;BME280;8055;51.930;8.840;2023-02-17T02:03:29;76495.19;;;-145.72;100.00
15914;BME280;8055;51.930;8.840;2023-02-17T02:05:58;76495.19;;;-145.72;100.00
15914;BME280;8055;51.930;8.840;2023-02-17T02:08:25;76486.91;;;-145.72;100.00
15914;BME280;8055;51.930;8.840;2023-02-17T02:10:52;76486.91;;;-145.72;100.00
15914;BME280;8055;51.930;8.840;2023-02-17T02:13:18;76491.03;;;-145.72;100.00
15914;BME280;8055;51.930;8.840;2023-02-17T02:15:47;76491.03;;;-145.72;100.00
15914;BME280;8055;51.930;8.840;2023-02-17T02:18:35;76478.63;;;-145.72;100.00
15914;BME280;8055;51.930;8.840;2023-02-17T02:24:26;76460.00;;;-145.72;100.00
15914;BME280;8055;51.930;8.840;2023-02-17T02:27:27;76466.22;;;-145.72;100.00
15914;BME280;8055;51.930;8.840;2023-02-17T02:29:57;76468.28;;;-145.72;100.00
15914;BME280;8055;51.930;8.840;2023-02-17T02:38:03;76457.94;;;-145.72;100.00
15914;BME280;8055;51.930;8.840;2023-02-17T02:40:34;76453.78;;;-145.72;100.00
15914;BME280;8055;51.930;8.840;2023-02-17T02:43:02;76464.16;;;-145.72;100.00
15914;BME280;8055;51.930;8.840;2023-02-17T02:45:28;76472.41;;;-145.72;100.00
15914;BME280;8055;51.930;8.840;2023-02-17T02:47:56;76462.06;;;-145.72;100.00
15914;BME280;8055;51.930;8.840;2023-02-17T02:56:21;76457.94;;;-145.72;100.00
15914;BME280;8055;51.930;8.840;2023-02-17T02:59:13;76455.88;;;-145.72;100.00
15914;BME280;8055;51.930;8.840;2023-02-17T03:04:30;76445.53;;;-145.72;100.00
15914;BME280;8055;51.930;8.840;2023-02-17T03:07:10;76455.88;;;-145.72;100.00
15914;BME280;8055;51.930;8.840;2023-02-17T03:09:53;76449.66;;;-145.72;100.00
15914;BME280;8055;51.930;8.840;2023-02-17T03:12:20;76447.59;;;-145.72;100.00
15914;BME280;8055;51.930;8.840;2023-02-17T03:14:53;76451.72;;;-145.72;100.00
15914;BME280;8055;51.930;8.840;2023-02-17T03:17:19;76453.78;;;-145.72;100.00
15914;BME280;8055;51.930;8.840;2023-02-17T03:19:45;76449.66;;;-145.72;100.00
15914;BME280;8055;51.930;8.840;2023-02-17T03:22:21;76439.31;;;-145.72;100.00
15914;BME280;8055;51.930;8.840;2023-02-17T03:24:47;76437.25;;;-145.72;100.00
15914;BME280;8055;51.930;8.840;2023-02-17T03:27:12;76433.09;;;-145.72;100.00
15914;BME280;8055;51.930;8.840;2023-02-17T03:29:38;76428.97;;;-145.72;100.00
15914;BME280;8055;51.930;8.840;2023-02-17T03:32:04;76435.16;;;-145.72;100.00
15914;BME280;8055;51.930;8.840;2023-02-17T03:34:30;76422.75;;;-145.72;100.00
15914;BME280;8055;51.930;8.840;2023-02-17T03:36:55;76400.00;;;-145.72;100.00
15914;BME280;8055;51.930;8.840;2023-02-17T03:39:21;76397.91;;;-145.72;100.00
15914;BME280;8055;51.930;8.840;2023-02-17T03:41:46;76402.06;;;-145.72;100.00
15914;BME280;8055;51.930;8.840;2023-02-17T03:44:14;76375.16;;;-145.72;100.00
15914;BME280;8055;51.930;8.840;2023-02-17T03:46:39;76379.28;;;-145.72;100.00
15914;BME280;8055;51.930;8.840;2023-02-17T03:49:05;76385.50;;;-145.72;100.00
15914;BME280;8055;51.930;8.840;2023-02-17T03:51:30;76389.63;;;-145.72;100.00
15914;BME280;8055;51.930;8.840;2023-02-17T03:53:56;76395.84;;;-145.72;100.00
15914;BME280;8055;51.930;8.840;2023-02-17T03:56:21;76397.91;;;-145.72;100.00
15914;BME280;8055;51.930;8.840;2023-02-17T03:58:47;76393.78;;;-145.72;100.00
15914;BME280;8055;51.930;8.840;2023-02-17T04:01:12;76387.56;;;-145.72;100.00
15914;BME280;8055;51.930;8.840;2023-02-17T04:03:39;76381.34;;;-145.72;100.00
15914;BME280;8055;51.930;8.840;2023-02-17T04:06:05;76383.44;;;-145.72;100.00
15914;BME280;8055;51.930;8.840;2023-02-17T04:08:31;76395.84;;;-145.72;100.00
15914;BME280;8055;51.930;8.840;2023-02-17T04:10:59;76387.56;;;-145.72;100.00
15914;BME280;8055;51.930;8.840;2023-02-17T04:13:25;76387.56;;;-145.72;100.00
15914;BME280;8055;51.930;8.840;2023-02-17T04:15:51;76383.44;;;-145.72;100.00
15914;BME280;8055;51.930;8.840;2023-02-17T04:18:16;76381.34;;;-145.72;100.00
15914;BME280;8055;51.930;8.840;2023-02-17T04:20:42;76389.63;;;-145.72;100.00
15914;BME280;8055;51.930;8.840;2023-02-17T04:23:09;76402.06;;;-145.72;100.00
15914;BME280;8055;51.930;8.840;2023-02-17T04:25:36;76393.78;;;-145.72;100.00
15914;BME280;8055;51.930;8.840;2023-02-17T04:28:03;76379.28;;;-145.72;100.00
15914;BME280;8055;51.930;8.840;2023-02-17T04:30:29;76385.50;;;-145.72;100.00
15914;BME280;8055;51.930;8.840;2023-02-17T04:32:54;76383.44;;;-145.72;100.00
15914;BME280;8055;51.930;8.840;2023-02-17T04:35:20;76385.50;;;-145.72;100.00
15914;BME280;8055;51.930;8.840;2023-02-17T04:37:45;76373.09;;;-145.72;100.00
15914;BME280;8055;51.930;8.840;2023-02-17T04:40:11;76377.22;;;-145.72;100.00
15914;BME280;8055;51.930;8.840;2023-02-17T04:42:37;76383.44;;;-145.72;100.00
15914;BME280;8055;51.930;8.840;2023-02-17T04:45:04;76387.56;;;-145.72;100.00
15914;BME280;8055;51.930;8.840;2023-02-17T04:47:30;76387.56;;;-145.72;100.00
15914;BME280;8055;51.930;8.840;2023-02-17T04:49:55;76387.56;;;-145.72;100.00
15914;BME280;8055;51.930;8.840;2023-02-17T04:52:20;76383.44;;;-145.72;100.00
15914;BME280;8055;51.930;8.840;2023-02-17T04:54:46;76385.50;;;-145.72;100.00
15914;BME280;8055;51.930;8.840;2023-02-17T04:57:11;76379.28;;;-145.72;100.00
15914;BME280;8055;51.930;8.840;2023-02-17T04:59:37;76371.00;;;-145.72;100.00
15914;BME280;8055;51.930;8.840;2023-02-17T05:02:02;76366.88;;;-145.72;100.00
15914;BME280;8055;51.930;8.840;2023-02-17T05:04:27;76358.59;;;-145.72;100.00
15914;BME280;8055;51.930;8.840;2023-02-17T05:06:53;76366.88;;;-145.72;100.00
15914;BME280;8055;51.930;8.840;2023-02-17T05:09:19;76362.72;;;-145.72;100.00
15914;BME280;8055;51.930;8.840;2023-02-17T05:11:44;76362.72;;;-145.72;100.00
15914;BME280;8055;51.930;8.840;2023-02-17T05:14:10;76356.53;;;-145.72;100.00
15914;BME280;8055;51.930;8.840;2023-02-17T05:16:35;76346.19;;;-145.72;100.00
15914;BME280;8055;51.930;8.840;2023-02-17T05:19:01;76346.19;;;-145.72;100.00
15914;BME280;8055;51.930;8.840;2023-02-17T05:21:26;76329.63;;;-145.72;100.00
15914;BME280;8055;51.930;8.840;2023-02-17T05:23:52;76329.63;;;-145.72;100.00
15914;BME280;8055;51.930;8.840;2023-02-17T05:26:17;76333.75;;;-145.72;100.00
15914;BME280;8055;51.930;8.840;2023-02-17T05:28:42;76325.47;;;-145.72;100.00
15914;BME280;8055;51.930;8.840;2023-02-17T05:31:08;76317.22;;;-145.72;100.00
15914;BME280;8055;51.930;8.840;2023-02-17T05:33:35;76329.63;;;-145.72;100.00
15914;BME280;8055;51.930;8.840;2023-02-17T05:36:05;76319.28;;;-145.72;100.00
15914;BME280;8055;51.930;8.840;2023-02-17T05:38:31;76308.94;;;-145.72;100.00
15914;BME280;8055;51.930;8.840;2023-02-17T05:40:56;76321.34;;;-145.72;100.00
15914;BME280;8055;51.930;8.840;2023-02-17T05:43:22;76342.03;;;-145.72;100.00
15914;BME280;8055;51.930;8.840;2023-02-17T05:45:47;76323.41;;;-145.72;100.00
15914;BME280;8055;51.930;8.840;2023-02-17T05:48:13;76313.06;;;-145.72;100.00
15914;BME280;8055;51.930;8.840;2023-02-17T05:50:38;76315.13;;;-145.72;100.00
15914;BME280;8055;51.930;8.840;2023-02-17T05:53:03;76327.56;;;-145.72;100.00
15914;BME280;8055;51.930;8.840;2023-02-17T05:55:29;76329.63;;;-145.72;100.00
15914;BME280;8055;51.930;8.840;2023-02-17T05:57:54;76317.22;;;-145.72;100.00
15914;BME280;8055;51.930;8.840;2023-02-17T06:00:20;76317.22;;;-145.72;100.00
15914;BME280;8055;51.930;8.840;2023-02-17T06:02:45;76292.38;;;-145.72;100.00
15914;BME280;8055;51.930;8.840;2023-02-17T06:05:10;76273.75;;;-145.72;100.00
15914;BME280;8055;51.930;8.840;2023-02-17T06:07:36;76300.66;;;-145.72;100.00
15914;BME280;8055;51.930;8.840;2023-02-17T06:10:01;76279.97;;;-145.72;100.00
15914;BME280;8055;51.930;8.840;2023-02-17T06:12:27;76282.03;;;-145.72;100.00
15914;BME280;8055;51.930;8.840;2023-02-17T06:14:52;76292.38;;;-145.72;100.00
15914;BME280;8055;51.930;8.840;2023-02-17T06:17:17;76290.31;;;-145.72;100.00
15914;BME280;8055;51.930;8.840;2023-02-17T06:19:43;76284.09;;;-145.72;100.00
15914;BME280;8055;51.930;8.840;2023-02-17T06:22:08;76259.25;;;-145.72;100.00
15914;BME280;8055;51.930;8.840;2023-02-17T06:24:33;76255.13;;;-145.72;100.00
15914;BME280;8055;51.930;8.840;2023-02-17T06:27:00;76253.06;;;-145.72;100.00
15914;BME280;8055;51.930;8.840;2023-02-17T06:29:25;76255.13;;;-145.72;100.00
15914;BME280;8055;51.930;8.840;2023-02-17T06:31:52;76253.06;;;-145.72;100.00
15914;BME280;8055;51.930;8.840;2023-02-17T06:34:17;76253.06;;;-145.72;100.00
15914;BME280;8055;51.930;8.840;2023-02-17T06:36:42;76240.63;;;-145.72;100.00
15914;BME280;8055;51.930;8.840;2023-02-17T06:39:08;76242.72;;;-145.72;100.00
15914;BME280;8055;51.930;8.840;2023-02-17T06:41:33;76228.22;;;-145.72;100.00
15914;BME280;8055;51.930;8.840;2023-02-17T06:43:59;76222.00;;;-145.72;100.00
15914;BME280;8055;51.930;8.840;2023-02-17T06:46:24;76222.00;;;-145.72;100.00
15914;BME280;8055;51.930;8.840;2023-02-17T06:48:49;76232.34;;;-145.72;100.00
15914;BME280;8055;51.930;8.840;2023-02-17T06:51:15;76224.09;;;-145.72;100.00
15914;BME280;8055;51.930;8.840;2023-02-17T06:53:40;76230.28;;;-145.72;100.00
15914;BME280;8055;51.930;8.840;2023-02-17T06:56:05;76228.22;;;-145.72;100.00
15914;BME280;8055;51.930;8.840;2023-02-17T06:58:31;76236.50;;;-145.72;100.00
15914;BME280;8055;51.930;8.840;2023-02-17T07:00:57;76232.34;;;-145.72;100.00
15914;BME280;8055;51.930;8.840;2023-02-17T07:03:22;76230.28;;;-145.72;100.00
15914;BME280;8055;51.930;8.840;2023-02-17T07:05:48;76255.13;;;-145.72;100.00
15914;BME280;8055;51.930;8.840;2023-02-17T07:08:13;76257.19;;;-145.72;100.00
15914;BME280;8055;51.930;8.840;2023-02-17T07:10:39;76250.97;;;-145.72;100.00
15914;BME280;8055;51.930;8.840;2023-02-17T07:13:04;76238.56;;;-145.72;100.00
15914;BME280;8055;51.930;8.840;2023-02-17T07:15:30;76246.84;;;-145.72;100.00
15914;BME280;8055;51.930;8.840;2023-02-17T07:17:55;76248.91;;;-145.72;100.00
15914;BME280;8055;51.930;8.840;2023-02-17T07:20:20;76228.22;;;-145.72;100.00
15914;BME280;8055;51.930;8.840;2023-02-17T07:22:46;76224.09;;;-145.72;100.00
15914;BME280;8055;51.930;8.840;2023-02-17T07:25:11;76219.94;;;-145.72;100.00
15914;BME280;8055;51.930;8.840;2023-02-17T07:27:37;76232.34;;;-145.72;100.00
15914;BME280;8055;51.930;8.840;2023-02-17T07:30:03;76232.34;;;-145.72;100.00
15914;BME280;8055;51.930;8.840;2023-02-17T07:32:28;76211.66;;;-145.72;100.00
15914;BME280;8055;51.930;8.840;2023-02-17T07:34:54;76195.09;;;-145.72;100.00
15914;BME280;8055;51.930;8.840;2023-02-17T07:37:19;76197.19;;;-145.72;100.00
15914;BME280;8055;51.930;8.840;2023-02-17T07:39:47;76213.72;;;-145.72;100.00
15914;BME280;8055;51.930;8.840;2023-02-17T07:42:12;76201.31;;;-145.72;100.00
15914;BME280;8055;51.930;8.840;2023-02-17T07:44:38;76195.09;;;-145.72;100.00
15914;BME280;8055;51.930;8.840;2023-02-17T07:47:03;76180.63;;;-145.72;100.00
15914;BME280;8055;51.930;8.840;2023-02-17T07:49:29;76184.75;;;-145.72;100.00
15914;BME280;8055;51.930;8.840;2023-02-17T07:51:54;76149.56;;;-145.72;100.00
15914;BME280;8055;51.930;8.840;2023-02-17T07:54:19;76172.34;;;-145.72;100.00
15914;BME280;8055;51.930;8.840;2023-02-17T07:56:45;76135.09;;;-145.72;100.00
15914;BME280;8055;51.930;8.840;2023-02-17T07:59:11;76155.78;;;-145.72;100.00
15914;BME280;8055;51.930;8.840;2023-02-17T08:01:37;76147.50;;;-145.72;100.00
15914;BME280;8055;51.930;8.840;2023-02-17T08:04:03;76168.19;;;-145.72;100.00
15914;BME280;8055;51.930;8.840;2023-02-17T08:06:29;76166.13;;;-145.72;100.00
15914;BME280;8055;51.930;8.840;2023-02-17T08:08:54;76166.13;;;-145.72;100.00
15914;BME280;8055;51.930;8.840;2023-02-17T08:11:40;76180.63;;;-145.72;100.00
15914;BME280;8055;51.930;8.840;2023-02-17T08:14:26;76157.84;;;-145.72;100.00
15914;BME280;8055;51.930;8.840;2023-02-17T08:16:52;76162.00;;;-145.72;100.00
15914;BME280;8055;51.930;8.840;2023-02-17T08:19:17;76151.66;;;-145.72;100.00
15914;BME280;8055;51.930;8.840;2023-02-17T08:21:43;76139.22;;;-145.72;100.00
15914;BME280;8055;51.930;8.840;2023-02-17T08:24:09;76159.94;;;-145.72;100.00
15914;BME280;8055;51.930;8.840;2023-02-17T08:26:35;76147.50;;;-145.72;100.00
15914;BME280;8055;51.930;8.840;2023-02-17T08:29:00;76145.44;;;-145.72;100.00
15914;BME280;8055;51.930;8.840;2023-02-17T08:31:31;76149.56;;;-145.72;100.00
15914;BME280;8055;51.930;8.840;2023-02-17T08:33:59;76147.50;;;-145.72;100.00
15914;BME280;8055;51.930;8.840;2023-02-17T08:36:25;76147.50;;;-145.72;100.00
15914;BME280;8055;51.930;8.840;2023-02-17T08:38:51;76151.66;;;-145.72;100.00
15914;BME280;8055;51.930;8.840;2023-02-17T08:41:25;76133.03;;;-145.72;100.00
15914;BME280;8055;51.930;8.840;2023-02-17T08:43:53;76122.69;;;-145.72;100.00
15914;BME280;8055;51.930;8.840;2023-02-17T08:46:18;76118.53;;;-145.72;100.00
15914;BME280;8055;51.930;8.840;2023-02-17T08:48:44;76126.81;;;-145.72;100.00
15914;BME280;8055;51.930;8.840;2023-02-17T08:51:17;76114.41;;;-145.72;100.00
15914;BME280;8055;51.930;8.840;2023-02-17T08:53:49;76112.31;;;-145.72;100.00
15914;BME280;8055;51.930;8.840;2023-02-17T08:56:14;76122.69;;;-145.72;100.00
15914;BME280;8055;51.930;8.840;2023-02-17T08:58:40;76137.16;;;-145.72;100.00
15914;BME280;8055;51.930;8.840;2023-02-17T09:01:05;76112.31;;;-145.72;100.00
15914;BME280;8055;51.930;8.840;2023-02-17T09:03:35;76106.13;;;-145.72;100.00
15914;BME280;8055;51.930;8.840;2023-02-17T09:06:02;76106.13;;;-145.72;100.00
15914;BME280;8055;51.930;8.840;2023-02-17T09:08:27;76124.75;;;-145.72;100.00
15914;BME280;8055;51.930;8.840;2023-02-17T09:10:53;76128.88;;;-145.72;100.00
15914;BME280;8055;51.930;8.840;2023-02-17T09:13:18;76122.69;;;-145.72;100.00
15914;BME280;8055;51.930;8.840;2023-02-17T09:15:44;76112.31;;;-145.72;100.00
15914;BME280;8055;51.930;8.840;2023-02-17T09:18:09;76106.13;;;-145.72;100.00
15914;BME280;8055;51.930;8.840;2023-02-17T09:20:36;76118.53;;;-145.72;100.00
15914;BME280;8055;51.930;8.840;2023-02-17T09:23:02;76118.53;;;-145.72;100.00
15914;BME280;8055;51.930;8.840;2023-02-17T09:25:27;76101.97;;;-145.72;100.00
15914;BME280;8055;51.930;8.840;2023-02-17T09:27:53;76095.78;;;-145.72;100.00
15914;BME280;8055;51.930;8.840;2023-02-17T09:30:18;76091.63;;;-145.72;100.00
15914;BME280;8055;51.930;8.840;2023-02-17T09:32:43;76097.84;;;-145.72;100.00
15914;BME280;8055;51.930;8.840;2023-02-17T09:35:13;76079.22;;;-145.72;100.00
15914;BME280;8055;51.930;8.840;2023-02-17T09:37:39;76060.59;;;-145.72;100.00
15914;BME280;8055;51.930;8.840;2023-02-17T09:40:06;76085.44;;;-145.72;100.00
15914;BME280;8055;51.930;8.840;2023-02-17T09:42:35;76070.94;;;-145.72;100.00
15914;BME280;8055;51.930;8.840;2023-02-17T09:45:13;76062.66;;;-145.72;100.00
15914;BME280;8055;51.930;8.840;2023-02-17T09:47:47;76068.88;;;-145.72;100.00
15914;BME280;8055;51.930;8.840;2023-02-17T09:50:17;76077.16;;;-145.72;100.00
15914;BME280;8055;51.930;8.840;2023-02-17T09:52:48;76089.56;;;-145.72;100.00
15914;BME280;8055;51.930;8.840;2023-02-17T09:55:53;76091.63;;;-145.72;100.00
15914;BME280;8055;51.930;8.840;2023-02-17T10:00:55;76083.34;;;-145.72;100.00
15914;BME280;8055;51.930;8.840;2023-02-17T10:03:25;76083.34;;;-145.72;100.00
15914;BME280;8055;51.930;8.840;2023-02-17T10:08:53;76068.88;;;-145.72;100.00
15914;BME280;8055;51.930;8.840;2023-02-17T10:14:00;76064.72;;;-145.72;100.00
15914;BME280;8055;51.930;8.840;2023-02-17T10:16:33;76050.25;;;-145.72;100.00
15914;BME280;8055;51.930;8.840;2023-02-17T10:19:10;76060.59;;;-145.72;100.00
15914;BME280;8055;51.930;8.840;2023-02-17T10:21:45;76060.59;;;-145.72;100.00
15914;BME280;8055;51.930;8.840;2023-02-17T10:24:12;76044.03;;;-145.72;100.00
15914;BME280;8055;51.930;8.840;2023-02-17T10:27:06;76048.19;;;-145.72;100.00
15914;BME280;8055;51.930;8.840;2023-02-17T10:30:06;76033.69;;;-145.72;100.00
15914;BME280;8055;51.930;8.840;2023-02-17T10:32:48;76027.47;;;-145.72;100.00
15914;BME280;8055;51.930;8.840;2023-02-17T10:35:39;76008.84;;;-145.72;100.00
15914;BME280;8055;51.930;8.840;2023-02-17T10:38:25;75986.09;;;-145.72;100.00
15914;BME280;8055;51.930;8.840;2023-02-17T10:40:58;75973.69;;;-145.72;100.00
15914;BME280;8055;51.930;8.840;2023-02-17T10:43:27;75965.41;;;-145.72;100.00
15914;BME280;8055;51.930;8.840;2023-02-17T10:45:54;75990.25;;;-145.72;100.00
15914;BME280;8055;51.930;8.840;2023-02-17T10:48:23;75988.16;;;-145.72;100.00
15914;BME280;8055;51.930;8.840;2023-02-17T10:50:52;75973.69;;;-145.72;100.00
15914;BME280;8055;51.930;8.840;2023-02-17T10:53:33;75971.63;;;-145.72;100.00
15914;BME280;8055;51.930;8.840;2023-02-17T10:56:11;75965.41;;;-145.72;100.00
15914;BME280;8055;51.930;8.840;2023-02-17T11:01:11;75963.34;;;-145.72;100.00
15914;BME280;8055;51.930;8.840;2023-02-17T11:03:37;75959.19;;;-145.72;100.00
15914;BME280;8055;51.930;8.840;2023-02-17T11:06:15;75967.47;;;-145.72;100.00
15914;BME280;8055;51.930;8.840;2023-02-17T11:08:50;75942.63;;;-145.72;100.00
15914;BME280;8055;51.930;8.840;2023-02-17T11:11:18;75928.16;;;-145.72;100.00
15914;BME280;8055;51.930;8.840;2023-02-17T11:16:39;75911.59;;;-145.72;100.00
15914;BME280;8055;51.930;8.840;2023-02-17T11:19:19;75919.88;;;-145.72;100.00
15914;BME280;8055;51.930;8.840;2023-02-17T11:21:45;75890.91;;;-145.72;100.00
15914;BME280;8055;51.930;8.840;2023-02-17T11:24:11;75886.78;;;-145.72;100.00
15914;BME280;8055;51.930;8.840;2023-02-17T11:26:36;75876.44;;;-145.72;100.00
15914;BME280;8055;51.930;8.840;2023-02-17T11:29:20;75872.28;;;-145.72;100.00
15914;BME280;8055;51.930;8.840;2023-02-17T11:32:03;75859.88;;;-145.72;100.00
15914;BME280;8055;51.930;8.840;2023-02-17T11:34:32;75859.88;;;-145.72;100.00
15914;BME280;8055;51.930;8.840;2023-02-17T11:39:43;75849.53;;;-145.72;100.00
15914;BME280;8055;51.930;8.840;2023-02-17T11:42:24;75826.75;;;-145.72;100.00
15914;BME280;8055;51.930;8.840;2023-02-17T11:44:52;75820.56;;;-145.72;100.00
15914;BME280;8055;51.930;8.840;2023-02-17T11:50:30;75795.72;;;-145.72;100.00
15914;BME280;8055;51.930;8.840;2023-02-17T11:53:22;75799.88;;;-145.72;100.00
15914;BME280;8055;51.930;8.840;2023-02-17T11:56:35;75804.00;;;-145.72;100.00
15914;BME280;8055;51.930;8.840;2023-02-17T11:58:53;75791.59;;;-145.72;100.00
15914;BME280;8055;51.930;8.840;2023-02-17T12:09:52;75754.34;;;-145.72;100.00
15914;BME280;8055;51.930;8.840;2023-02-17T12:12:42;75762.63;;;-145.72;100.00
15914;BME280;8055;51.930;8.840;2023-02-17T12:15:34;75775.03;;;-145.72;100.00
15914;BME280;8055;51.930;8.840;2023-02-17T12:18:29;75752.28;;;-145.72;100.00
15914;BME280;8055;51.930;8.840;2023-02-17T12:21:29;75756.41;;;-145.72;100.00
15914;BME280;8055;51.930;8.840;2023-02-17T12:24:01;75762.63;;;-145.72;100.00
15914;BME280;8055;51.930;8.840;2023-02-17T12:31:44;75758.47;;;-145.72;100.00
15914;BME280;8055;51.930;8.840;2023-02-17T12:34:20;75762.63;;;-145.72;100.00
15914;BME280;8055;51.930;8.840;2023-02-17T12:36:50;75744.00;;;-145.72;100.00
15914;BME280;8055;51.930;8.840;2023-02-17T12:39:30;75754.34;;;-145.72;100.00
15914;BME280;8055;51.930;8.840;2023-02-17T12:45:20;75748.13;;;-145.72;100.00
15914;BME280;8055;51.930;8.840;2023-02-17T12:47:54;75758.47;;;-145.72;100.00
15914;BME280;8055;51.930;8.840;2023-02-17T12:50:49;75762.63;;;-145.72;100.00
15914;BME280;8055;51.930;8.840;2023-02-17T12:53:38;75762.63;;;-145.72;100.00
15914;BME280;8055;51.930;8.840;2023-02-17T12:58:51;75785.38;;;-145.72;100.00
15914;BME280;8055;51.930;8.840;2023-02-17T13:01:19;75775.03;;;-145.72;100.00
15914;BME280;8055;51.930;8.840;2023-02-17T13:03:46;75793.66;;;-145.72;100.00
15914;BME280;8055;51.930;8.840;2023-02-17T13:06:31;75789.50;;;-145.72;100.00
15914;BME280;8055;51.930;8.840;2023-02-17T13:11:34;75799.88;;;-145.72;100.00
15914;BME280;8055;51.930;8.840;2023-02-17T13:14:24;75804.00;;;-145.72;100.00
15914;BME280;8055;51.930;8.840;2023-02-17T13:16:50;75795.72;;;-145.72;100.00
15914;BME280;8055;51.930;8.840;2023-02-17T13:19:27;75795.72;;;-145.72;100.00
15914;BME280;8055;51.930;8.840;2023-02-17T13:21:55;75812.28;;;-145.72;100.00
15914;BME280;8055;51.930;8.840;2023-02-17T13:24:52;75820.56;;;-145.72;100.00
15914;BME280;8055;51.930;8.840;2023-02-17T13:27:33;75820.56;;;-145.72;100.00
15914;BME280;8055;51.930;8.840;2023-02-17T13:30:23;75810.22;;;-145.72;100.00
15914;BME280;8055;51.930;8.840;2023-02-17T13:35:47;75818.47;;;-145.72;100.00
15914;BME280;8055;51.930;8.840;2023-02-17T13:38:12;75841.25;;;-145.72;100.00
15914;BME280;8055;51.930;8.840;2023-02-17T13:40:39;75853.66;;;-145.72;100.00
15914;BME280;8055;51.930;8.840;2023-02-17T13:43:14;75861.94;;;-145.72;100.00
15914;BME280;8055;51.930;8.840;2023-02-17T13:45:47;75857.81;;;-145.72;100.00
15914;BME280;8055;51.930;8.840;2023-02-17T13:50:47;75870.22;;;-145.72;100.00
15914;BME280;8055;51.930;8.840;2023-02-17T13:53:25;75876.44;;;-145.72;100.00
15914;BME280;8055;51.930;8.840;2023-02-17T13:55:53;75903.31;;;-145.72;100.00